Time;durP1;ratioP1;P1;durP2;ratioP2;P2;SDS_P1;SDS_P2;PMS_P1;PMS_P2;Temp;Humidity;BMP_temperature;BMP_pressure;BME280_temperature;BME280_humidity;BME280_pressure;Samples;Min_cycle;Max_cycle;Signal;HPM_P1;HPM_P2
2024/01/23 00:01:21;;;;;;;;;;;3.80;99.90;;;;;;5038374;28;19971;-62
2024/01/23 00:03:48;;;;;;;;;;;3.80;99.90;;;;;;5033126;28;19933;-63
2024/01/23 00:06:15;;;;;;;;;;;3.80;99.90;;;;;;5038451;28;20287;-60
2024/01/23 00:08:42;;;;;;;;;;;3.80;99.90;;;;;;5035694;28;19925;-63
2024/01/23 00:11:09;;;;;;;;;;;3.80;99.90;;;;;;5033677;28;19925;-66
2024/01/23 00:13:36;;;;;;;;;;;3.80;99.90;;;;;;5032296;28;20008;-61
2024/01/23 00:16:03;;;;;;;;;;;3.80;99.90;;;;;;5034632;28;19994;-64
2024/01/23 00:18:30;;;;;;;;;;;3.80;99.90;;;;;;5032984;28;20420;-63
2024/01/23 00:20:57;;;;;;;;;;;3.80;99.90;;;;;;5033577;28;19924;-60
2024/01/23 00:23:24;;;;;;;;;;;3.80;99.90;;;;;;5032526;28;19936;-60
2024/01/23 00:25:52;;;;;;;;;;;3.70;99.90;;;;;;5033989;28;19931;-62
2024/01/23 00:28:19;;;;;;;;;;;3.70;99.90;;;;;;5031476;28;19925;-59
2024/01/23 00:30:46;;;;;;;;;;;3.60;99.90;;;;;;5037364;28;20015;-60
2024/01/23 00:33:13;;;;;;;;;;;3.70;99.90;;;;;;5033574;28;19925;-69
2024/01/23 00:35:40;;;;;;;;;;;3.60;99.90;;;;;;5033074;28;20016;-61
2024/01/23 00:38:07;;;;;;;;;;;3.60;99.90;;;;;;5030779;28;20386;-61
2024/01/23 00:40:34;;;;;;;;;;;3.60;99.90;;;;;;5032243;28;20272;-62
2024/01/23 00:43:01;;;;;;;;;;;3.60;99.90;;;;;;5032747;28;19932;-60
2024/01/23 00:45:28;;;;;;;;;;;3.60;99.90;;;;;;5029487;28;19929;-60
2024/01/23 00:47:55;;;;;;;;;;;3.60;99.90;;;;;;5042384;28;19929;-61
2024/01/23 00:50:22;;;;;;;;;;;3.60;99.90;;;;;;5037019;28;20024;-63
2024/01/23 00:52:49;;;;;;;;;;;3.60;99.90;;;;;;5036893;28;19933;-62
2024/01/23 00:55:15;;;;;;;;;;;3.70;99.90;;;;;;5032544;28;20330;-62
2024/01/23 00:57:42;;;;;;;;;;;3.60;99.90;;;;;;5031736;28;20040;-61
2024/01/23 01:00:09;;;;;;;;;;;3.70;99.90;;;;;;5032498;28;19929;-59
2024/01/23 01:02:37;;;;;;;;;;;3.80;99.90;;;;;;5032072;28;19979;-62
2024/01/23 01:05:04;;;;;;;;;;;3.80;99.90;;;;;;5035088;28;19979;-59
2024/01/23 01:07:31;;;;;;;;;;;3.80;99.90;;;;;;5038483;28;19925;-60
2024/01/23 01:09:58;;;;;;;;;;;3.80;99.90;;;;;;5049370;28;19932;-62
2024/01/23 01:12:24;;;;;;;;;;;3.80;99.90;;;;;;5050649;28;19929;-60
2024/01/23 01:14:51;;;;;;;;;;;3.80;99.90;;;;;;5036363;28;19932;-60
2024/01/23 01:17:18;;;;;;;;;;;3.80;99.90;;;;;;5031929;28;19929;-60
2024/01/23 01:19:45;;;;;;;;;;;3.70;99.90;;;;;;5031641;28;20272;-61
2024/01/23 01:22:12;;;;;;;;;;;3.70;99.90;;;;;;5029453;28;21817;-60
2024/01/23 01:24:39;;;;;;;;;;;3.70;99.90;;;;;;5029809;28;19999;-61
2024/01/23 01:27:06;;;;;;;;;;;3.70;99.90;;;;;;5029372;28;19975;-60
2024/01/23 01:29:33;;;;;;;;;;;3.70;99.90;;;;;;5037631;28;19932;-62
2024/01/23 01:32:00;;;;;;;;;;;3.70;99.90;;;;;;5033605;28;19931;-62
2024/01/23 01:34:26;;;;;;;;;;;3.70;99.90;;;;;;5035065;28;19929;-60
2024/01/23 01:36:54;;;;;;;;;;;3.70;99.90;;;;;;5035530;28;19925;-60
2024/01/23 01:39:20;;;;;;;;;;;3.70;99.90;;;;;;5028223;28;19932;-60
2024/01/23 01:41:51;;;;;;;;;;;3.70;99.90;;;;;;5031172;28;20519;-62
2024/01/23 01:44:18;;;;;;;;;;;3.80;99.90;;;;;;5030793;28;19929;-63
2024/01/23 01:46:45;;;;;;;;;;;3.70;99.90;;;;;;5029818;28;19928;-60
2024/01/23 01:49:13;;;;;;;;;;;3.70;99.90;;;;;;5028582;28;19948;-65
2024/01/23 01:51:40;;;;;;;;;;;3.70;99.90;;;;;;5035511;28;20293;-63
2024/01/23 01:54:07;;;;;;;;;;;3.70;99.90;;;;;;5032668;28;19936;-62
2024/01/23 01:56:34;;;;;;;;;;;3.70;99.90;;;;;;5035456;28;20405;-63
2024/01/23 01:59:01;;;;;;;;;;;3.60;99.90;;;;;;5030159;28;19924;-63
2024/01/23 02:01:28;;;;;;;;;;;3.60;99.90;;;;;;5028263;28;20020;-62
2024/01/23 02:03:55;;;;;;;;;;;3.60;99.90;;;;;;5032707;28;19929;-60
2024/01/23 02:06:22;;;;;;;;;;;3.60;99.90;;;;;;5034747;28;20390;-62
2024/01/23 02:08:50;;;;;;;;;;;3.60;99.90;;;;;;5031949;28;19940;-64
2024/01/23 02:11:17;;;;;;;;;;;3.60;99.90;;;;;;5032854;28;19932;-61
2024/01/23 02:13:44;;;;;;;;;;;3.60;99.90;;;;;;5028374;28;20330;-61
2024/01/23 02:16:11;;;;;;;;;;;3.50;99.90;;;;;;5031039;28;19936;-61
2024/01/23 02:18:38;;;;;;;;;;;3.50;99.90;;;;;;5034477;28;19932;-60
2024/01/23 02:21:05;;;;;;;;;;;3.50;99.90;;;;;;5035549;28;19979;-62
2024/01/23 02:23:32;;;;;;;;;;;3.60;99.90;;;;;;5037856;28;20375;-63
2024/01/23 02:25:58;;;;;;;;;;;3.50;99.90;;;;;;5032297;28;19926;-62
2024/01/23 02:28:25;;;;;;;;;;;3.60;99.90;;;;;;5034300;28;20403;-60
2024/01/23 02:30:52;;;;;;;;;;;3.60;99.90;;;;;;5033260;28;19956;-61
2024/01/23 02:33:19;;;;;;;;;;;3.60;99.90;;;;;;5029649;28;20387;-60
2024/01/23 02:35:46;;;;;;;;;;;3.50;99.90;;;;;;5033292;28;19925;-60
2024/01/23 02:38:13;;;;;;;;;;;3.50;99.90;;;;;;5030109;28;20020;-62
2024/01/23 02:40:40;;;;;;;;;;;3.50;99.90;;;;;;5026049;28;19925;-60
2024/01/23 02:43:07;;;;;;;;;;;3.50;99.90;;;;;;5038125;28;19925;-63
2024/01/23 02:45:34;;;;;;;;;;;3.50;99.90;;;;;;5029569;28;19967;-62
2024/01/23 02:48:01;;;;;;;;;;;3.50;99.90;;;;;;5034264;28;19929;-62
2024/01/23 02:50:29;;;;;;;;;;;3.60;99.90;;;;;;5036604;28;19925;-60
2024/01/23 02:52:55;;;;;;;;;;;3.60;99.90;;;;;;5032876;28;19929;-61
2024/01/23 02:55:22;;;;;;;;;;;3.70;99.90;;;;;;5030716;28;19940;-61
2024/01/23 02:57:49;;;;;;;;;;;3.70;99.90;;;;;;5032167;28;19929;-61
2024/01/23 03:00:16;;;;;;;;;;;3.70;99.90;;;;;;5027051;28;19936;-63
2024/01/23 03:02:43;;;;;;;;;;;3.80;99.90;;;;;;5036268;28;20023;-66
2024/01/23 03:05:10;;;;;;;;;;;3.80;99.90;;;;;;5035051;28;19951;-64
2024/01/23 03:07:37;;;;;;;;;;;3.80;99.90;;;;;;5030991;28;19928;-63
2024/01/23 03:10:04;;;;;;;;;;;3.90;99.90;;;;;;5029201;28;19987;-62
2024/01/23 03:12:31;;;;;;;;;;;3.90;99.90;;;;;;5036582;28;19925;-63
2024/01/23 03:14:58;;;;;;;;;;;3.90;99.90;;;;;;5029498;28;20387;-64
2024/01/23 03:17:25;;;;;;;;;;;3.90;99.90;;;;;;5031018;28;19925;-62
2024/01/23 03:19:52;;;;;;;;;;;3.90;99.90;;;;;;5031866;28;19929;-61
2024/01/23 03:22:19;;;;;;;;;;;3.80;99.90;;;;;;5030370;28;20562;-60
2024/01/23 03:24:46;;;;;;;;;;;3.80;99.90;;;;;;5033649;28;20014;-61
2024/01/23 03:27:13;;;;;;;;;;;3.80;99.90;;;;;;5030757;28;19933;-60
2024/01/23 03:29:41;;;;;;;;;;;3.80;99.90;;;;;;5034355;28;19937;-64
2024/01/23 03:32:08;;;;;;;;;;;3.80;99.90;;;;;;5035483;28;19995;-61
2024/01/23 03:34:35;;;;;;;;;;;3.80;99.90;;;;;;5039471;28;20389;-60
2024/01/23 03:37:03;;;;;;;;;;;3.70;99.90;;;;;;5030287;28;19956;-65
2024/01/23 03:39:30;;;;;;;;;;;3.70;99.90;;;;;;5030301;28;20310;-61
2024/01/23 03:41:57;;;;;;;;;;;3.70;99.90;;;;;;5033453;28;19924;-60
2024/01/23 03:44:24;;;;;;;;;;;3.70;99.90;;;;;;5031906;28;19925;-63
2024/01/23 03:46:55;;;;;;;;;;;3.60;99.90;;;;;;5032988;28;19925;-60
2024/01/23 03:49:22;;;;;;;;;;;3.60;99.90;;;;;;5037902;28;20723;-61
2024/01/23 03:51:49;;;;;;;;;;;3.60;99.90;;;;;;5037158;28;19925;-60
2024/01/23 03:54:17;;;;;;;;;;;3.60;99.90;;;;;;5033452;28;19929;-61
2024/01/23 03:56:44;;;;;;;;;;;3.60;99.90;;;;;;5037861;28;19925;-60
2024/01/23 03:59:11;;;;;;;;;;;3.60;99.90;;;;;;5040578;28;20554;-61
2024/01/23 04:01:37;;;;;;;;;;;3.60;99.90;;;;;;5033985;28;19957;-60
2024/01/23 04:04:05;;;;;;;;;;;3.60;99.90;;;;;;5032603;28;20632;-60
2024/01/23 04:06:32;;;;;;;;;;;3.70;99.90;;;;;;5032354;28;19933;-60
2024/01/23 04:08:59;;;;;;;;;;;3.70;99.90;;;;;;5030314;28;19975;-63
2024/01/23 04:11:26;;;;;;;;;;;3.70;99.90;;;;;;5028382;28;20413;-60
2024/01/23 04:13:53;;;;;;;;;;;3.60;99.90;;;;;;5031272;28;19929;-61
2024/01/23 04:16:19;;;;;;;;;;;3.60;99.90;;;;;;5028856;28;19933;-60
2024/01/23 04:18:46;;;;;;;;;;;3.60;99.90;;;;;;5036748;28;19925;-60
2024/01/23 04:21:16;;;;;;;;;;;3.60;99.90;;;;;;5033890;28;19932;-60
2024/01/23 04:23:43;;;;;;;;;;;3.50;99.90;;;;;;5028057;28;19924;-63
2024/01/23 04:26:11;;;;;;;;;;;3.50;99.90;;;;;;5036504;28;19933;-61
2024/01/23 04:28:37;;;;;;;;;;;3.50;99.90;;;;;;5031615;28;19961;-63
2024/01/23 04:31:04;;;;;;;;;;;3.40;99.90;;;;;;5034210;28;20486;-60
2024/01/23 04:33:31;;;;;;;;;;;3.40;99.90;;;;;;5028972;28;19929;-60
2024/01/23 04:35:59;;;;;;;;;;;3.40;99.90;;;;;;5027873;28;19964;-62
2024/01/23 04:38:26;;;;;;;;;;;3.40;99.90;;;;;;5034074;28;19964;-61
2024/01/23 04:40:53;;;;;;;;;;;3.40;99.90;;;;;;5025803;28;19925;-60
2024/01/23 04:43:20;;;;;;;;;;;3.40;99.90;;;;;;5031197;28;19933;-61
2024/01/23 04:45:46;;;;;;;;;;;3.40;99.90;;;;;;5039020;28;20031;-66
2024/01/23 04:48:13;;;;;;;;;;;3.40;99.90;;;;;;5033697;28;19925;-62
2024/01/23 04:50:40;;;;;;;;;;;3.40;99.90;;;;;;5031741;28;19932;-62
2024/01/23 04:53:07;;;;;;;;;;;3.30;99.90;;;;;;5032028;28;20472;-62
2024/01/23 04:55:34;;;;;;;;;;;3.30;99.90;;;;;;5027007;28;19929;-60
2024/01/23 04:58:01;;;;;;;;;;;3.30;99.90;;;;;;5028939;28;20310;-60
2024/01/23 05:00:28;;;;;;;;;;;3.30;99.90;;;;;;5033281;28;19932;-62
2024/01/23 05:02:55;;;;;;;;;;;3.30;99.90;;;;;;5034251;28;19931;-60
2024/01/23 05:05:22;;;;;;;;;;;3.30;99.90;;;;;;5039347;28;19925;-60
2024/01/23 05:07:48;;;;;;;;;;;3.40;99.90;;;;;;5036463;28;19925;-61
2024/01/23 05:10:15;;;;;;;;;;;3.40;99.90;;;;;;5030572;28;20363;-61
2024/01/23 05:12:42;;;;;;;;;;;3.40;99.90;;;;;;5034157;28;19952;-62
2024/01/23 05:15:09;;;;;;;;;;;3.40;99.90;;;;;;5030529;28;19979;-61
2024/01/23 05:17:36;;;;;;;;;;;3.40;99.90;;;;;;5032380;28;19952;-61
2024/01/23 05:20:07;;;;;;;;;;;3.40;99.90;;;;;;5028702;28;19925;-61
2024/01/23 05:22:34;;;;;;;;;;;3.40;99.90;;;;;;5033466;28;20000;-62
2024/01/23 05:25:02;;;;;;;;;;;3.40;99.90;;;;;;5035226;28;19925;-63
2024/01/23 05:27:29;;;;;;;;;;;3.40;99.90;;;;;;5030193;28;19929;-59
2024/01/23 05:29:56;;;;;;;;;;;3.40;99.90;;;;;;5029283;28;19925;-64
2024/01/23 05:32:23;;;;;;;;;;;3.30;99.90;;;;;;5033076;28;20013;-61
2024/01/23 05:34:50;;;;;;;;;;;3.30;99.90;;;;;;5033425;28;20528;-60
2024/01/23 05:37:19;;;;;;;;;;;3.40;99.90;;;;;;5031800;28;20371;-60
2024/01/23 05:39:46;;;;;;;;;;;3.30;99.90;;;;;;5032022;28;19928;-60
2024/01/23 05:42:13;;;;;;;;;;;3.30;99.90;;;;;;5032821;28;19929;-60
2024/01/23 05:44:40;;;;;;;;;;;3.40;99.90;;;;;;5028743;28;19982;-65
2024/01/23 05:47:11;;;;;;;;;;;3.40;99.90;;;;;;5031371;28;19987;-60
2024/01/23 05:49:37;;;;;;;;;;;3.40;99.90;;;;;;5041275;28;20267;-61
2024/01/23 05:52:04;;;;;;;;;;;3.40;99.90;;;;;;5033222;28;20414;-64
2024/01/23 05:54:31;;;;;;;;;;;3.40;99.90;;;;;;5035074;28;20586;-62
2024/01/23 05:56:59;;;;;;;;;;;3.50;99.90;;;;;;5035174;28;19932;-63
2024/01/23 05:59:26;;;;;;;;;;;3.50;99.90;;;;;;5027383;28;19935;-61
2024/01/23 06:01:53;;;;;;;;;;;3.50;99.90;;;;;;5033684;28;19933;-62
2024/01/23 06:04:19;;;;;;;;;;;3.60;99.90;;;;;;5044767;28;20123;-60
2024/01/23 06:06:47;;;;;;;;;;;3.60;99.90;;;;;;5027430;28;20035;-61
2024/01/23 06:09:15;;;;;;;;;;;3.50;99.90;;;;;;5025637;28;19972;-62
2024/01/23 06:11:42;;;;;;;;;;;3.50;99.90;;;;;;5036252;28;19929;-59
2024/01/23 06:14:09;;;;;;;;;;;3.50;99.90;;;;;;5029277;28;19926;-60
2024/01/23 06:16:36;;;;;;;;;;;3.50;99.90;;;;;;5031807;28;20416;-61
2024/01/23 06:19:06;;;;;;;;;;;3.50;99.90;;;;;;5035423;28;19985;-61
2024/01/23 06:21:33;;;;;;;;;;;3.40;99.90;;;;;;5035590;28;19928;-60
2024/01/23 06:23:59;;;;;;;;;;;3.40;99.90;;;;;;5030531;28;19959;-63
2024/01/23 06:26:26;;;;;;;;;;;3.40;99.90;;;;;;5030668;28;19936;-60
2024/01/23 06:28:53;;;;;;;;;;;3.40;99.90;;;;;;5024683;28;19930;-63
2024/01/23 06:31:25;;;;;;;;;;;3.40;99.90;;;;;;5030283;28;19943;-62
2024/01/23 06:33:52;;;;;;;;;;;3.40;99.90;;;;;;5036709;28;19976;-61
2024/01/23 06:36:19;;;;;;;;;;;3.40;99.90;;;;;;5033242;28;19931;-64
2024/01/23 06:38:46;;;;;;;;;;;3.40;99.90;;;;;;5029994;28;20019;-61
2024/01/23 06:41:14;;;;;;;;;;;3.30;99.90;;;;;;5028398;28;19925;-60
2024/01/23 06:43:40;;;;;;;;;;;3.30;99.90;;;;;;5029114;28;19987;-64
2024/01/23 06:46:07;;;;;;;;;;;3.30;99.90;;;;;;5031263;28;19947;-60
2024/01/23 06:48:34;;;;;;;;;;;3.20;99.90;;;;;;5028227;28;19925;-61
2024/01/23 06:51:01;;;;;;;;;;;3.20;99.90;;;;;;5028352;28;19932;-60
2024/01/23 06:53:28;;;;;;;;;;;3.20;99.90;;;;;;5025852;28;19925;-60
2024/01/23 06:55:55;;;;;;;;;;;3.20;99.90;;;;;;5028869;28;19972;-61
2024/01/23 06:58:22;;;;;;;;;;;3.20;99.90;;;;;;5036069;28;19933;-62
2024/01/23 07:00:49;;;;;;;;;;;3.30;99.90;;;;;;5037145;28;19940;-65
2024/01/23 07:03:16;;;;;;;;;;;3.30;99.90;;;;;;5038429;28;20279;-62
2024/01/23 07:05:46;;;;;;;;;;;3.30;99.90;;;;;;5034106;28;20052;-61
2024/01/23 07:08:14;;;;;;;;;;;3.20;99.90;;;;;;5034946;28;20267;-63
2024/01/23 07:10:40;;;;;;;;;;;3.30;99.90;;;;;;5032959;28;19966;-60
2024/01/23 07:13:07;;;;;;;;;;;3.30;99.90;;;;;;5036376;28;19968;-63
2024/01/23 07:15:34;;;;;;;;;;;3.30;99.90;;;;;;5036843;28;19925;-66
2024/01/23 07:18:02;;;;;;;;;;;3.30;99.90;;;;;;5036029;28;20341;-61
2024/01/23 07:20:29;;;;;;;;;;;3.30;99.90;;;;;;5032411;28;19929;-62
2024/01/23 07:22:55;;;;;;;;;;;3.30;99.90;;;;;;5037643;28;20829;-61
2024/01/23 07:25:23;;;;;;;;;;;3.30;99.90;;;;;;5031040;28;19999;-60
2024/01/23 07:27:50;;;;;;;;;;;3.40;99.90;;;;;;5043128;28;20649;-66
2024/01/23 07:30:17;;;;;;;;;;;3.40;99.90;;;;;;5033048;28;19925;-62
2024/01/23 07:32:44;;;;;;;;;;;3.40;99.90;;;;;;5032275;28;19929;-60
2024/01/23 07:35:11;;;;;;;;;;;3.50;99.90;;;;;;5033017;28;19944;-60
2024/01/23 07:37:38;;;;;;;;;;;3.50;99.90;;;;;;5034973;28;19936;-60
2024/01/23 07:40:05;;;;;;;;;;;3.60;99.90;;;;;;5030006;28;20493;-63
2024/01/23 07:42:32;;;;;;;;;;;3.60;99.90;;;;;;5034863;28;19929;-59
2024/01/23 07:44:59;;;;;;;;;;;3.60;99.90;;;;;;5040344;28;19937;-60
2024/01/23 07:47:25;;;;;;;;;;;3.70;99.90;;;;;;5039859;28;19933;-61
2024/01/23 07:49:52;;;;;;;;;;;3.70;99.90;;;;;;5037936;28;20478;-61
2024/01/23 07:52:21;;;;;;;;;;;3.70;99.90;;;;;;5035920;28;19925;-65
2024/01/23 07:54:48;;;;;;;;;;;3.70;99.90;;;;;;5032650;28;20016;-61
2024/01/23 07:57:15;;;;;;;;;;;3.70;99.90;;;;;;5038757;28;19925;-61
2024/01/23 07:59:42;;;;;;;;;;;3.70;99.90;;;;;;5034247;28;19929;-63
2024/01/23 08:02:09;;;;;;;;;;;3.70;99.90;;;;;;5032471;28;19928;-62
2024/01/23 08:04:35;;;;;;;;;;;3.70;99.90;;;;;;5033857;28;19933;-63
2024/01/23 08:07:03;;;;;;;;;;;3.60;99.90;;;;;;5031350;28;20031;-62
2024/01/23 08:09:30;;;;;;;;;;;3.70;99.90;;;;;;5036009;28;19936;-59
2024/01/23 08:11:56;;;;;;;;;;;3.70;99.90;;;;;;5038201;28;20371;-61
2024/01/23 08:14:23;;;;;;;;;;;3.60;99.90;;;;;;5040869;28;19982;-60
2024/01/23 08:16:50;;;;;;;;;;;3.60;99.90;;;;;;5035735;28;19952;-60
2024/01/23 08:19:17;;;;;;;;;;;3.60;99.90;;;;;;5034688;28;20036;-63
2024/01/23 08:21:45;;;;;;;;;;;3.60;99.90;;;;;;5035448;28;19929;-60
2024/01/23 08:24:12;;;;;;;;;;;3.60;99.90;;;;;;5032073;28;19929;-64
2024/01/23 08:26:39;;;;;;;;;;;3.50;99.90;;;;;;5031160;28;19925;-62
2024/01/23 08:29:09;;;;;;;;;;;3.50;99.90;;;;;;5034574;28;20440;-59
2024/01/23 08:31:36;;;;;;;;;;;3.50;99.90;;;;;;5038101;28;19925;-63
2024/01/23 08:34:03;;;;;;;;;;;3.50;99.90;;;;;;5040053;28;20708;-63
2024/01/23 08:36:30;;;;;;;;;;;3.50;99.90;;;;;;5037372;28;20524;-61
2024/01/23 08:38:57;;;;;;;;;;;3.50;99.90;;;;;;5033396;28;19937;-63
2024/01/23 08:41:24;;;;;;;;;;;3.50;99.90;;;;;;5031233;28;20377;-59
2024/01/23 08:43:51;;;;;;;;;;;3.50;99.90;;;;;;5039673;28;19929;-60
2024/01/23 08:46:20;;;;;;;;;;;3.50;99.90;;;;;;5035884;28;19925;-62
2024/01/23 08:48:47;;;;;;;;;;;3.50;99.90;;;;;;5031595;28;20054;-62
2024/01/23 08:51:14;;;;;;;;;;;3.50;99.90;;;;;;5030787;28;19937;-61
2024/01/23 08:53:42;;;;;;;;;;;3.50;99.90;;;;;;5034438;28;19932;-65
2024/01/23 08:56:09;;;;;;;;;;;3.50;99.90;;;;;;5038433;28;19932;-64
2024/01/23 08:58:36;;;;;;;;;;;3.50;99.90;;;;;;5037888;28;19925;-66
2024/01/23 09:01:04;;;;;;;;;;;3.60;99.90;;;;;;5033107;28;19925;-62
2024/01/23 09:03:31;;;;;;;;;;;3.60;99.90;;;;;;5039420;28;20426;-63
2024/01/23 09:05:58;;;;;;;;;;;3.60;99.90;;;;;;5029025;28;19955;-63
2024/01/23 09:08:25;;;;;;;;;;;3.60;99.90;;;;;;5032473;28;19936;-63
2024/01/23 09:10:51;;;;;;;;;;;3.60;99.90;;;;;;5028859;28;19937;-61
2024/01/23 09:13:18;;;;;;;;;;;3.60;99.90;;;;;;5036663;28;19957;-62
2024/01/23 09:15:45;;;;;;;;;;;3.70;99.90;;;;;;5026361;28;19974;-62
2024/01/23 09:18:12;;;;;;;;;;;3.70;99.90;;;;;;5035919;28;19925;-66
2024/01/23 09:20:39;;;;;;;;;;;3.70;99.90;;;;;;5029708;28;19937;-61
2024/01/23 09:23:07;;;;;;;;;;;3.70;99.90;;;;;;5027746;28;19932;-62
2024/01/23 09:25:34;;;;;;;;;;;3.80;99.90;;;;;;5036389;28;19925;-65
2024/01/23 09:28:01;;;;;;;;;;;3.70;99.90;;;;;;5036309;28;19951;-62
2024/01/23 09:30:28;;;;;;;;;;;3.80;99.90;;;;;;5028714;28;20363;-61
2024/01/23 09:32:57;;;;;;;;;;;3.80;99.90;;;;;;5034572;28;20306;-61
2024/01/23 09:35:25;;;;;;;;;;;3.80;99.90;;;;;;5030561;28;20012;-62
2024/01/23 09:37:52;;;;;;;;;;;3.80;99.90;;;;;;5034825;28;19928;-62
2024/01/23 09:40:20;;;;;;;;;;;3.80;99.90;;;;;;5028436;28;20383;-64
2024/01/23 09:42:46;;;;;;;;;;;3.90;99.90;;;;;;5029892;28;20453;-61
2024/01/23 09:45:17;;;;;;;;;;;3.90;99.90;;;;;;5035103;28;20442;-62
2024/01/23 09:47:50;;;;;;;;;;;4.00;99.90;;;;;;5025441;28;20043;-62
2024/01/23 09:50:17;;;;;;;;;;;4.00;99.90;;;;;;5033386;28;19925;-61
2024/01/23 09:52:46;;;;;;;;;;;4.10;99.90;;;;;;5029096;28;19929;-62
2024/01/23 09:55:14;;;;;;;;;;;4.10;99.90;;;;;;5028787;28;20413;-61
2024/01/23 09:57:42;;;;;;;;;;;4.10;99.90;;;;;;5031000;28;19932;-61
2024/01/23 10:00:13;;;;;;;;;;;4.00;99.90;;;;;;5034553;28;19929;-60
2024/01/23 10:02:40;;;;;;;;;;;4.00;99.90;;;;;;5026926;28;20510;-61
2024/01/23 10:05:11;;;;;;;;;;;4.00;99.90;;;;;;5030908;28;19932;-67
2024/01/23 10:07:39;;;;;;;;;;;4.00;99.90;;;;;;5030186;28;19925;-63
2024/01/23 10:10:17;;;;;;;;;;;4.00;99.90;;;;;;5032156;28;20418;-62
2024/01/23 10:12:45;;;;;;;;;;;4.00;99.90;;;;;;5036626;28;19952;-62
2024/01/23 10:15:14;;;;;;;;;;;4.00;99.90;;;;;;5028728;28;19926;-65
2024/01/23 10:17:42;;;;;;;;;;;4.00;99.90;;;;;;5031266;28;19965;-61
2024/01/23 10:20:10;;;;;;;;;;;4.00;99.90;;;;;;5029605;28;19936;-63
2024/01/23 10:22:38;;;;;;;;;;;4.00;99.90;;;;;;5032354;28;19925;-61
2024/01/23 10:25:13;;;;;;;;;;;4.00;99.90;;;;;;5030688;28;19929;-68
2024/01/23 10:27:40;;;;;;;;;;;4.00;99.90;;;;;;5023785;28;19925;-66
2024/01/23 10:30:07;;;;;;;;;;;4.00;99.90;;;;;;5031186;28;19935;-60
2024/01/23 10:32:36;;;;;;;;;;;4.00;99.90;;;;;;5042367;28;19955;-60
2024/01/23 10:35:03;;;;;;;;;;;4.00;99.90;;;;;;5036700;28;19964;-61
2024/01/23 10:37:30;;;;;;;;;;;4.00;99.90;;;;;;5038893;28;19933;-61
2024/01/23 10:39:58;;;;;;;;;;;4.00;99.90;;;;;;5068693;28;19929;-60
2024/01/23 10:42:25;;;;;;;;;;;4.00;99.90;;;;;;5037119;28;19929;-61
2024/01/23 10:44:52;;;;;;;;;;;4.00;99.90;;;;;;5036914;28;20299;-61
2024/01/23 10:47:19;;;;;;;;;;;4.00;99.90;;;;;;5033782;28;20515;-62
2024/01/23 10:49:46;;;;;;;;;;;4.00;99.90;;;;;;5029908;28;20434;-63
2024/01/23 10:52:17;;;;;;;;;;;4.00;99.90;;;;;;5037757;28;19925;-60
2024/01/23 10:54:48;;;;;;;;;;;4.00;99.90;;;;;;5028125;28;19983;-62
2024/01/23 10:57:19;;;;;;;;;;;4.00;99.90;;;;;;5039171;28;20457;-61
2024/01/23 10:59:47;;;;;;;;;;;4.00;99.90;;;;;;5042330;28;19929;-62
2024/01/23 11:02:35;;;;;;;;;;;4.10;99.90;;;;;;5032559;28;19931;-61
2024/01/23 11:05:03;;;;;;;;;;;4.10;99.90;;;;;;5034504;28;19931;-60
2024/01/23 11:07:36;;;;;;;;;;;4.10;99.90;;;;;;5030186;28;19925;-61
2024/01/23 11:10:14;;;;;;;;;;;4.10;99.90;;;;;;5033039;28;19953;-62
2024/01/23 11:13:01;;;;;;;;;;;4.10;99.90;;;;;;5033170;28;20016;-61
2024/01/23 11:15:28;;;;;;;;;;;4.10;99.90;;;;;;5044856;28;19972;-61
2024/01/23 11:18:15;;;;;;;;;;;4.10;99.90;;;;;;5041334;28;19932;-63
2024/01/23 11:20:42;;;;;;;;;;;4.10;99.90;;;;;;5039887;28;19929;-59
2024/01/23 11:23:13;;;;;;;;;;;4.20;99.90;;;;;;5034996;28;19932;-62
2024/01/23 11:25:57;;;;;;;;;;;4.20;99.90;;;;;;5033120;28;20497;-63
2024/01/23 11:28:24;;;;;;;;;;;4.20;99.90;;;;;;5051086;28;20323;-62
2024/01/23 11:31:07;;;;;;;;;;;4.30;99.90;;;;;;5033892;28;20350;-60
2024/01/23 11:33:34;;;;;;;;;;;4.30;99.90;;;;;;5036571;28;19940;-66
2024/01/23 11:36:08;;;;;;;;;;;4.30;99.90;;;;;;5033841;28;19933;-60
2024/01/23 11:38:47;;;;;;;;;;;4.40;99.90;;;;;;5031359;28;19925;-64
2024/01/23 11:41:15;;;;;;;;;;;4.50;99.90;;;;;;5035390;28;20367;-67
2024/01/23 11:43:42;;;;;;;;;;;4.50;99.90;;;;;;5032946;28;20452;-62
2024/01/23 11:46:12;;;;;;;;;;;4.60;99.90;;;;;;5033771;28;20417;-62
2024/01/23 11:48:40;;;;;;;;;;;4.70;99.90;;;;;;5038664;28;19925;-60
2024/01/23 11:51:07;;;;;;;;;;;4.80;99.90;;;;;;5038093;28;19933;-60
2024/01/23 11:53:36;;;;;;;;;;;4.90;99.90;;;;;;5033740;28;19932;-64
2024/01/23 11:56:05;;;;;;;;;;;5.00;99.90;;;;;;5029624;28;19929;-61
2024/01/23 11:58:32;;;;;;;;;;;5.00;99.90;;;;;;5032936;28;19933;-61
2024/01/23 12:00:59;;;;;;;;;;;5.00;99.90;;;;;;5033932;28;19925;-66
2024/01/23 12:03:26;;;;;;;;;;;5.00;99.90;;;;;;5036552;28;19979;-68
2024/01/23 12:05:53;;;;;;;;;;;5.00;99.90;;;;;;5033565;28;19935;-61
2024/01/23 12:08:20;;;;;;;;;;;5.00;99.90;;;;;;5035471;28;19937;-63
2024/01/23 12:10:47;;;;;;;;;;;5.00;99.90;;;;;;5036630;28;19933;-63
2024/01/23 12:13:14;;;;;;;;;;;5.00;99.90;;;;;;5036159;28;20338;-66
2024/01/23 12:15:41;;;;;;;;;;;5.00;99.90;;;;;;5034678;28;19939;-61
2024/01/23 12:18:11;;;;;;;;;;;5.00;99.90;;;;;;5029156;28;19925;-60
2024/01/23 12:20:41;;;;;;;;;;;5.00;99.90;;;;;;5031181;28;20024;-63
2024/01/23 12:23:08;;;;;;;;;;;5.00;99.90;;;;;;5032217;28;19925;-60
2024/01/23 12:25:35;;;;;;;;;;;5.00;99.90;;;;;;5029989;28;19933;-64
2024/01/23 12:28:03;;;;;;;;;;;4.90;99.90;;;;;;5036940;28;20580;-62
2024/01/23 12:30:30;;;;;;;;;;;4.90;99.90;;;;;;5033035;28;20414;-62
2024/01/23 12:32:57;;;;;;;;;;;4.90;99.90;;;;;;5033217;28;19925;-68
2024/01/23 12:35:25;;;;;;;;;;;4.90;99.90;;;;;;5034981;28;19961;-60
2024/01/23 12:37:52;;;;;;;;;;;4.80;99.90;;;;;;5033882;28;19928;-61
2024/01/23 12:40:21;;;;;;;;;;;4.80;99.90;;;;;;5031176;28;19936;-61
2024/01/23 12:42:48;;;;;;;;;;;4.80;99.90;;;;;;5037128;28;19929;-64
2024/01/23 12:45:16;;;;;;;;;;;4.90;99.90;;;;;;5031604;28;20252;-61
2024/01/23 12:47:43;;;;;;;;;;;4.80;99.90;;;;;;5031260;28;19936;-61
2024/01/23 12:50:19;;;;;;;;;;;4.90;99.90;;;;;;5037169;28;19929;-61
2024/01/23 12:52:47;;;;;;;;;;;4.90;99.90;;;;;;5034731;28;20438;-61
2024/01/23 12:55:15;;;;;;;;;;;4.90;99.90;;;;;;5033076;28;19976;-63
2024/01/23 12:57:44;;;;;;;;;;;4.90;99.90;;;;;;5033992;28;19924;-62
2024/01/23 13:00:11;;;;;;;;;;;4.90;99.90;;;;;;5040214;28;19929;-61
2024/01/23 13:02:38;;;;;;;;;;;4.90;99.90;;;;;;5032404;28;19925;-64
2024/01/23 13:05:06;;;;;;;;;;;4.90;99.90;;;;;;5032325;28;19924;-63
2024/01/23 13:07:36;;;;;;;;;;;4.90;99.90;;;;;;5026045;28;19936;-61
2024/01/23 13:10:04;;;;;;;;;;;4.90;99.90;;;;;;5031649;28;19929;-60
2024/01/23 13:12:33;;;;;;;;;;;4.90;99.90;;;;;;5029807;28;19925;-61
2024/01/23 13:15:01;;;;;;;;;;;4.90;99.90;;;;;;5036922;28;19939;-68
2024/01/23 13:17:28;;;;;;;;;;;4.90;99.90;;;;;;5037270;28;19979;-63
2024/01/23 13:19:56;;;;;;;;;;;4.90;99.90;;;;;;5032979;28;20042;-60
2024/01/23 13:22:23;;;;;;;;;;;4.90;99.90;;;;;;5030638;28;19933;-60
2024/01/23 13:24:50;;;;;;;;;;;5.00;99.90;;;;;;5034303;28;19995;-63
2024/01/23 13:27:17;;;;;;;;;;;5.00;99.90;;;;;;5035071;28;19929;-64
2024/01/23 13:29:45;;;;;;;;;;;5.00;99.90;;;;;;5036667;28;19961;-62
2024/01/23 13:32:12;;;;;;;;;;;5.00;99.90;;;;;;5031744;28;20055;-61
2024/01/23 13:34:41;;;;;;;;;;;5.00;99.90;;;;;;5030253;28;19976;-61
2024/01/23 13:37:08;;;;;;;;;;;5.10;99.90;;;;;;5037352;28;19925;-62
2024/01/23 13:39:35;;;;;;;;;;;5.00;99.90;;;;;;5039670;28;20267;-61
2024/01/23 13:42:02;;;;;;;;;;;5.00;99.90;;;;;;5032273;28;19935;-66
2024/01/23 13:44:29;;;;;;;;;;;5.00;99.90;;;;;;5037120;28;19928;-60
2024/01/23 13:46:57;;;;;;;;;;;5.00;99.90;;;;;;5033108;28;19950;-62
2024/01/23 13:49:24;;;;;;;;;;;5.00;99.90;;;;;;5036390;28;19956;-64
2024/01/23 13:51:51;;;;;;;;;;;5.00;99.90;;;;;;5032743;28;20379;-60
2024/01/23 13:54:18;;;;;;;;;;;5.00;99.90;;;;;;5029953;28;20432;-61
2024/01/23 13:56:45;;;;;;;;;;;5.00;99.90;;;;;;5034146;28;19925;-61
2024/01/23 13:59:12;;;;;;;;;;;4.90;99.90;;;;;;5025430;28;20272;-62
2024/01/23 14:01:40;;;;;;;;;;;4.90;99.90;;;;;;5034684;28;19964;-61
2024/01/23 14:04:07;;;;;;;;;;;4.90;99.90;;;;;;5040794;28;20019;-60
2024/01/23 14:06:34;;;;;;;;;;;4.90;99.90;;;;;;5029193;28;19925;-63
2024/01/23 14:09:01;;;;;;;;;;;4.80;99.90;;;;;;5031215;28;19929;-60
2024/01/23 14:11:28;;;;;;;;;;;4.80;99.90;;;;;;5038629;28;19952;-60
2024/01/23 14:13:55;;;;;;;;;;;4.80;99.90;;;;;;5031248;28;19975;-61
2024/01/23 14:16:22;;;;;;;;;;;4.80;99.90;;;;;;5034302;28;19940;-61
2024/01/23 14:18:51;;;;;;;;;;;4.80;99.90;;;;;;5045545;28;21473;-62
2024/01/23 14:21:19;;;;;;;;;;;4.70;99.90;;;;;;5033591;28;19925;-62
2024/01/23 14:23:47;;;;;;;;;;;4.70;99.90;;;;;;5028471;28;19925;-64
2024/01/23 14:26:13;;;;;;;;;;;4.60;99.90;;;;;;5034817;28;19975;-61
2024/01/23 14:28:40;;;;;;;;;;;4.60;99.90;;;;;;5037944;28;19940;-60
2024/01/23 14:31:08;;;;;;;;;;;4.50;99.90;;;;;;5034747;28;19929;-60
2024/01/23 14:33:36;;;;;;;;;;;4.50;99.90;;;;;;5032141;28;20402;-61